Forside
METAR-TAF:

METAR-TAF

Lufthavne :

Beijing Capital International Airport

Beijing, Kina

Breddekreds: 39-56N, længdekreds: 116-17E, højde: 55 m

Aktuelle vejr

Denne rapport blev lavet for 16 minutter siden, kl. 16:30 UTC
Vind 2 kt fra varierende retninger
Temperatur 11°C
Fugtighed 94%
Tryk 1021 hPa
Sigt: 3500 m
dis

METAR: ZBAA 151630Z VRB01MPS 3500 BR NSC 11/10 Q1021 NOSIG

Tid: 00:46 (16:46 UTC)

Vejrudsigter

Denne rapport blev lavet for 7 timer og 26 minutter siden, kl. 09:20 UTC
Foreløbig gælder fra 15 på 12 UTC til 16 på 12 UTC
Vind 8 kt fra nord
Sigt: 2200 m
Brudte skyer i en højde af 4000 ft
let regn
ændring
fra 15 på 21 UTC til 15 på 22 UTC
Sigt: 1400 m
dis
ændring
fra 16 på 01 UTC til 16 på 02 UTC
Sigt: 3200 m

TAF: ZBAA 150920Z 1512/1612 01004MPS 2200 -RA BKN040 TX17/1607Z TN10/1521Z BECMG 1521/1522 1400 BR BECMG 1601/1602 3200

Vejrobservationer og prognoser fra mere end 4000 lufthavne (METAR og TAF).

De gule og røde prikker repræsenterer de meteorologiske stationer.

Flyt musen over at se navnet på stationen.

Så klik over at se vejr observationer og prognoser.

At skifte det kort: Klik på de grønne knapper med et sort kors for at zoome ind; på den grønne knap med en bindestreg for at zoome ud; eller på de grønne pile for tilstødende kort.


METAR-TAF: